sensor_id;sensor_type;location;lat;lon;timestamp;temperature;humidity
27376;DHT22;14844;51.302;6.354;2023-02-15T00:01:51;2.10;99.90
27376;DHT22;14844;51.302;6.354;2023-02-15T00:04:19;2.10;99.90
27376;DHT22;14844;51.302;6.354;2023-02-15T00:06:45;2.10;99.90
27376;DHT22;14844;51.302;6.354;2023-02-15T00:09:11;2.00;99.90
27376;DHT22;14844;51.302;6.354;2023-02-15T00:11:37;1.90;99.90
27376;DHT22;14844;51.302;6.354;2023-02-15T00:14:08;1.90;99.90
27376;DHT22;14844;51.302;6.354;2023-02-15T00:16:34;1.90;99.90
27376;DHT22;14844;51.302;6.354;2023-02-15T00:19:00;1.80;99.90
27376;DHT22;14844;51.302;6.354;2023-02-15T00:21:29;1.80;99.90
27376;DHT22;14844;51.302;6.354;2023-02-15T00:23:57;1.80;99.90
27376;DHT22;14844;51.302;6.354;2023-02-15T00:26:23;1.70;99.90
27376;DHT22;14844;51.302;6.354;2023-02-15T00:28:49;1.70;99.90
27376;DHT22;14844;51.302;6.354;2023-02-15T00:31:14;1.70;99.90
27376;DHT22;14844;51.302;6.354;2023-02-15T00:33:40;1.70;99.90
27376;DHT22;14844;51.302;6.354;2023-02-15T00:36:07;1.70;99.90
27376;DHT22;14844;51.302;6.354;2023-02-15T00:38:34;1.70;99.90
27376;DHT22;14844;51.302;6.354;2023-02-15T00:41:01;1.70;99.90
27376;DHT22;14844;51.302;6.354;2023-02-15T00:43:28;1.70;99.90
27376;DHT22;14844;51.302;6.354;2023-02-15T00:45:54;1.70;99.90
27376;DHT22;14844;51.302;6.354;2023-02-15T00:48:21;1.60;99.90
27376;DHT22;14844;51.302;6.354;2023-02-15T00:50:52;1.60;99.90
27376;DHT22;14844;51.302;6.354;2023-02-15T00:53:17;1.60;99.90
27376;DHT22;14844;51.302;6.354;2023-02-15T00:55:43;1.50;99.90
27376;DHT22;14844;51.302;6.354;2023-02-15T00:58:10;1.50;99.90
27376;DHT22;14844;51.302;6.354;2023-02-15T01:00:36;1.50;99.90
27376;DHT22;14844;51.302;6.354;2023-02-15T01:03:01;1.50;99.90
27376;DHT22;14844;51.302;6.354;2023-02-15T01:05:27;1.40;99.90
27376;DHT22;14844;51.302;6.354;2023-02-15T01:07:55;1.40;99.90
27376;DHT22;14844;51.302;6.354;2023-02-15T01:10:20;1.40;99.90
27376;DHT22;14844;51.302;6.354;2023-02-15T01:12:47;1.40;99.90
27376;DHT22;14844;51.302;6.354;2023-02-15T01:15:13;1.40;99.90
27376;DHT22;14844;51.302;6.354;2023-02-15T01:17:39;1.40;99.90
27376;DHT22;14844;51.302;6.354;2023-02-15T01:20:05;1.40;99.90
27376;DHT22;14844;51.302;6.354;2023-02-15T01:22:31;1.30;99.90
27376;DHT22;14844;51.302;6.354;2023-02-15T01:24:56;1.30;99.90
27376;DHT22;14844;51.302;6.354;2023-02-15T01:27:22;1.30;99.90
27376;DHT22;14844;51.302;6.354;2023-02-15T01:29:47;1.30;99.90
27376;DHT22;14844;51.302;6.354;2023-02-15T01:32:13;1.40;99.90
27376;DHT22;14844;51.302;6.354;2023-02-15T01:34:39;1.30;99.90
27376;DHT22;14844;51.302;6.354;2023-02-15T01:37:04;1.30;99.90
27376;DHT22;14844;51.302;6.354;2023-02-15T01:39:30;1.30;99.90
27376;DHT22;14844;51.302;6.354;2023-02-15T01:41:55;1.30;99.90
27376;DHT22;14844;51.302;6.354;2023-02-15T01:44:45;1.30;99.90
27376;DHT22;14844;51.302;6.354;2023-02-15T01:47:22;1.30;99.90
27376;DHT22;14844;51.302;6.354;2023-02-15T01:49:49;1.30;99.90
27376;DHT22;14844;51.302;6.354;2023-02-15T01:52:17;1.20;99.90
27376;DHT22;14844;51.302;6.354;2023-02-15T01:54:45;1.20;99.90
27376;DHT22;14844;51.302;6.354;2023-02-15T01:57:15;1.20;99.90
27376;DHT22;14844;51.302;6.354;2023-02-15T01:59:44;1.20;99.90
27376;DHT22;14844;51.302;6.354;2023-02-15T02:02:13;1.20;99.90
27376;DHT22;14844;51.302;6.354;2023-02-15T02:04:45;1.20;99.90
27376;DHT22;14844;51.302;6.354;2023-02-15T02:07:14;1.20;99.90
27376;DHT22;14844;51.302;6.354;2023-02-15T02:09:41;1.20;99.90
27376;DHT22;14844;51.302;6.354;2023-02-15T02:12:08;1.20;99.90
27376;DHT22;14844;51.302;6.354;2023-02-15T02:14:35;1.20;99.90
27376;DHT22;14844;51.302;6.354;2023-02-15T02:38:42;1.20;99.90
27376;DHT22;14844;51.302;6.354;2023-02-15T02:41:32;1.20;99.90
27376;DHT22;14844;51.302;6.354;2023-02-15T02:46:59;1.10;99.90
27376;DHT22;14844;51.302;6.354;2023-02-15T02:49:35;1.10;99.90
27376;DHT22;14844;51.302;6.354;2023-02-15T02:52:04;1.20;99.90
27376;DHT22;14844;51.302;6.354;2023-02-15T02:54:31;1.20;99.90
27376;DHT22;14844;51.302;6.354;2023-02-15T02:57:00;1.20;99.90
27376;DHT22;14844;51.302;6.354;2023-02-15T02:59:32;1.10;99.90
27376;DHT22;14844;51.302;6.354;2023-02-15T03:04:35;1.10;99.90
27376;DHT22;14844;51.302;6.354;2023-02-15T03:07:06;1.10;99.90
27376;DHT22;14844;51.302;6.354;2023-02-15T03:09:36;1.10;99.90
27376;DHT22;14844;51.302;6.354;2023-02-15T03:12:20;1.10;99.90
27376;DHT22;14844;51.302;6.354;2023-02-15T03:14:51;1.10;99.90
27376;DHT22;14844;51.302;6.354;2023-02-15T03:17:20;1.00;99.90
27376;DHT22;14844;51.302;6.354;2023-02-15T03:19:49;1.00;99.90
27376;DHT22;14844;51.302;6.354;2023-02-15T03:22:25;1.00;99.90
27376;DHT22;14844;51.302;6.354;2023-02-15T03:27:33;0.90;99.90
27376;DHT22;14844;51.302;6.354;2023-02-15T03:30:02;0.80;99.90
27376;DHT22;14844;51.302;6.354;2023-02-15T03:32:29;0.80;99.90
27376;DHT22;14844;51.302;6.354;2023-02-15T03:34:57;0.80;99.90
27376;DHT22;14844;51.302;6.354;2023-02-15T03:37:47;0.80;99.90
27376;DHT22;14844;51.302;6.354;2023-02-15T03:40:21;0.80;99.90
27376;DHT22;14844;51.302;6.354;2023-02-15T03:43:24;0.80;99.90
27376;DHT22;14844;51.302;6.354;2023-02-15T03:45:57;0.80;99.90
27376;DHT22;14844;51.302;6.354;2023-02-15T03:51:34;0.70;99.90
27376;DHT22;14844;51.302;6.354;2023-02-15T03:54:14;0.70;99.90
27376;DHT22;14844;51.302;6.354;2023-02-15T03:57:04;0.70;99.90
27376;DHT22;14844;51.302;6.354;2023-02-15T03:59:48;0.70;99.90
27376;DHT22;14844;51.302;6.354;2023-02-15T04:02:40;0.70;99.90
27376;DHT22;14844;51.302;6.354;2023-02-15T04:05:09;0.60;99.90
27376;DHT22;14844;51.302;6.354;2023-02-15T04:07:34;0.60;99.90
27376;DHT22;14844;51.302;6.354;2023-02-15T04:10:00;0.60;99.90
27376;DHT22;14844;51.302;6.354;2023-02-15T04:12:44;0.60;99.90
27376;DHT22;14844;51.302;6.354;2023-02-15T04:15:12;0.60;99.90
27376;DHT22;14844;51.302;6.354;2023-02-15T04:17:56;0.70;99.90
27376;DHT22;14844;51.302;6.354;2023-02-15T04:20:22;0.70;99.90
27376;DHT22;14844;51.302;6.354;2023-02-15T04:23:07;0.60;99.90
27376;DHT22;14844;51.302;6.354;2023-02-15T04:25:51;0.60;99.90
27376;DHT22;14844;51.302;6.354;2023-02-15T04:28:17;0.60;99.90
27376;DHT22;14844;51.302;6.354;2023-02-15T04:30:42;0.50;99.90
27376;DHT22;14844;51.302;6.354;2023-02-15T04:33:08;0.50;99.90
27376;DHT22;14844;51.302;6.354;2023-02-15T04:35:33;0.50;99.90
27376;DHT22;14844;51.302;6.354;2023-02-15T04:37:59;0.50;99.90
27376;DHT22;14844;51.302;6.354;2023-02-15T04:40:25;0.50;99.90
27376;DHT22;14844;51.302;6.354;2023-02-15T04:42:51;0.50;99.90
27376;DHT22;14844;51.302;6.354;2023-02-15T04:45:17;0.40;99.90
27376;DHT22;14844;51.302;6.354;2023-02-15T04:47:42;0.30;99.90
27376;DHT22;14844;51.302;6.354;2023-02-15T04:50:08;0.30;99.90
27376;DHT22;14844;51.302;6.354;2023-02-15T04:52:34;0.40;99.90
27376;DHT22;14844;51.302;6.354;2023-02-15T04:55:00;0.30;99.90
27376;DHT22;14844;51.302;6.354;2023-02-15T04:57:25;0.40;99.90
27376;DHT22;14844;51.302;6.354;2023-02-15T04:59:51;0.40;99.90
27376;DHT22;14844;51.302;6.354;2023-02-15T05:02:19;0.30;99.90
27376;DHT22;14844;51.302;6.354;2023-02-15T05:04:44;0.20;99.90
27376;DHT22;14844;51.302;6.354;2023-02-15T05:07:10;0.30;99.90
27376;DHT22;14844;51.302;6.354;2023-02-15T05:09:35;0.30;99.90
27376;DHT22;14844;51.302;6.354;2023-02-15T05:12:01;0.30;99.90
27376;DHT22;14844;51.302;6.354;2023-02-15T05:14:26;0.30;99.90
27376;DHT22;14844;51.302;6.354;2023-02-15T05:16:52;0.30;99.90
27376;DHT22;14844;51.302;6.354;2023-02-15T05:19:22;0.30;99.90
27376;DHT22;14844;51.302;6.354;2023-02-15T05:21:49;0.20;99.90
27376;DHT22;14844;51.302;6.354;2023-02-15T05:24:15;0.30;99.90
27376;DHT22;14844;51.302;6.354;2023-02-15T05:26:59;0.20;99.90
27376;DHT22;14844;51.302;6.354;2023-02-15T05:29:43;0.20;99.90
27376;DHT22;14844;51.302;6.354;2023-02-15T05:32:09;0.20;99.90
27376;DHT22;14844;51.302;6.354;2023-02-15T05:34:37;0.20;99.90
27376;DHT22;14844;51.302;6.354;2023-02-15T05:37:03;0.20;99.90
27376;DHT22;14844;51.302;6.354;2023-02-15T05:39:28;0.20;99.90
27376;DHT22;14844;51.302;6.354;2023-02-15T05:41:54;0.20;99.90
27376;DHT22;14844;51.302;6.354;2023-02-15T05:44:19;0.20;99.90
27376;DHT22;14844;51.302;6.354;2023-02-15T05:46:45;0.20;99.90
27376;DHT22;14844;51.302;6.354;2023-02-15T05:49:10;0.20;99.90
27376;DHT22;14844;51.302;6.354;2023-02-15T05:51:36;0.20;99.90
27376;DHT22;14844;51.302;6.354;2023-02-15T05:54:01;0.20;99.90
27376;DHT22;14844;51.302;6.354;2023-02-15T05:56:27;0.20;99.90
27376;DHT22;14844;51.302;6.354;2023-02-15T05:58:52;0.20;99.90
27376;DHT22;14844;51.302;6.354;2023-02-15T06:01:19;0.20;99.90
27376;DHT22;14844;51.302;6.354;2023-02-15T06:03:47;0.20;99.90
27376;DHT22;14844;51.302;6.354;2023-02-15T06:06:13;0.10;99.90
27376;DHT22;14844;51.302;6.354;2023-02-15T06:08:38;0.10;99.90
27376;DHT22;14844;51.302;6.354;2023-02-15T06:11:05;0.20;99.90
27376;DHT22;14844;51.302;6.354;2023-02-15T06:13:31;0.20;99.90
27376;DHT22;14844;51.302;6.354;2023-02-15T06:15:57;0.10;99.90
27376;DHT22;14844;51.302;6.354;2023-02-15T06:18:23;0.10;99.90
27376;DHT22;14844;51.302;6.354;2023-02-15T06:20:49;0.10;99.90
27376;DHT22;14844;51.302;6.354;2023-02-15T06:23:15;0.10;99.90
27376;DHT22;14844;51.302;6.354;2023-02-15T06:25:41;0.10;99.90
27376;DHT22;14844;51.302;6.354;2023-02-15T06:28:06;0.00;99.90
27376;DHT22;14844;51.302;6.354;2023-02-15T06:30:32;0.00;99.90
27376;DHT22;14844;51.302;6.354;2023-02-15T06:32:58;-0.10;99.90
27376;DHT22;14844;51.302;6.354;2023-02-15T06:35:24;0.00;99.90
27376;DHT22;14844;51.302;6.354;2023-02-15T06:37:49;0.00;99.90
27376;DHT22;14844;51.302;6.354;2023-02-15T06:40:15;0.00;99.90
27376;DHT22;14844;51.302;6.354;2023-02-15T06:42:41;0.00;99.90
27376;DHT22;14844;51.302;6.354;2023-02-15T06:45:08;0.10;99.90
27376;DHT22;14844;51.302;6.354;2023-02-15T06:47:34;0.10;99.90
27376;DHT22;14844;51.302;6.354;2023-02-15T06:50:00;0.10;99.90
27376;DHT22;14844;51.302;6.354;2023-02-15T06:52:26;0.10;99.90
27376;DHT22;14844;51.302;6.354;2023-02-15T06:54:51;0.10;99.90
27376;DHT22;14844;51.302;6.354;2023-02-15T06:57:17;0.10;99.90
27376;DHT22;14844;51.302;6.354;2023-02-15T06:59:42;0.10;99.90
27376;DHT22;14844;51.302;6.354;2023-02-15T07:02:12;0.10;99.90
27376;DHT22;14844;51.302;6.354;2023-02-15T07:04:37;0.10;99.90
27376;DHT22;14844;51.302;6.354;2023-02-15T07:07:03;0.20;99.90
27376;DHT22;14844;51.302;6.354;2023-02-15T07:09:29;0.30;99.90
27376;DHT22;14844;51.302;6.354;2023-02-15T07:12:30;0.40;99.90
27376;DHT22;14844;51.302;6.354;2023-02-15T07:15:26;0.40;99.90
27376;DHT22;14844;51.302;6.354;2023-02-15T07:17:54;0.50;99.90
27376;DHT22;14844;51.302;6.354;2023-02-15T07:20:22;0.60;99.90
27376;DHT22;14844;51.302;6.354;2023-02-15T07:22:48;0.60;99.90
27376;DHT22;14844;51.302;6.354;2023-02-15T07:25:14;0.70;99.90
27376;DHT22;14844;51.302;6.354;2023-02-15T07:27:40;0.70;99.90
27376;DHT22;14844;51.302;6.354;2023-02-15T07:30:08;0.90;99.90
27376;DHT22;14844;51.302;6.354;2023-02-15T07:32:34;0.90;99.90
27376;DHT22;14844;51.302;6.354;2023-02-15T07:35:00;1.00;99.90
27376;DHT22;14844;51.302;6.354;2023-02-15T07:37:27;1.10;99.90
27376;DHT22;14844;51.302;6.354;2023-02-15T07:39:52;1.20;99.90
27376;DHT22;14844;51.302;6.354;2023-02-15T07:42:18;1.30;99.90
27376;DHT22;14844;51.302;6.354;2023-02-15T07:44:45;1.40;99.90
27376;DHT22;14844;51.302;6.354;2023-02-15T07:47:11;1.50;99.90
27376;DHT22;14844;51.302;6.354;2023-02-15T07:49:37;1.60;99.90
27376;DHT22;14844;51.302;6.354;2023-02-15T07:52:03;1.70;99.90
27376;DHT22;14844;51.302;6.354;2023-02-15T07:54:29;1.90;99.90
27376;DHT22;14844;51.302;6.354;2023-02-15T07:56:54;2.10;99.90
27376;DHT22;14844;51.302;6.354;2023-02-15T07:59:20;2.10;99.90
27376;DHT22;14844;51.302;6.354;2023-02-15T08:01:48;2.10;99.90
27376;DHT22;14844;51.302;6.354;2023-02-15T08:04:14;2.20;99.90
27376;DHT22;14844;51.302;6.354;2023-02-15T08:06:42;2.20;99.90
27376;DHT22;14844;51.302;6.354;2023-02-15T08:09:08;2.40;99.90
27376;DHT22;14844;51.302;6.354;2023-02-15T08:11:36;2.50;99.90
27376;DHT22;14844;51.302;6.354;2023-02-15T08:14:16;2.60;99.90
27376;DHT22;14844;51.302;6.354;2023-02-15T08:16:53;2.60;99.90
27376;DHT22;14844;51.302;6.354;2023-02-15T08:19:23;2.70;99.90
27376;DHT22;14844;51.302;6.354;2023-02-15T08:21:56;2.80;99.90
27376;DHT22;14844;51.302;6.354;2023-02-15T08:24:26;2.90;99.90
27376;DHT22;14844;51.302;6.354;2023-02-15T08:26:52;3.00;99.90
27376;DHT22;14844;51.302;6.354;2023-02-15T08:29:21;3.10;99.90
27376;DHT22;14844;51.302;6.354;2023-02-15T08:31:48;3.20;99.90
27376;DHT22;14844;51.302;6.354;2023-02-15T08:34:41;3.40;99.90
27376;DHT22;14844;51.302;6.354;2023-02-15T08:37:07;3.50;99.90
27376;DHT22;14844;51.302;6.354;2023-02-15T08:39:33;3.60;99.90
27376;DHT22;14844;51.302;6.354;2023-02-15T08:42:01;3.70;99.90
27376;DHT22;14844;51.302;6.354;2023-02-15T08:44:29;3.90;99.90
27376;DHT22;14844;51.302;6.354;2023-02-15T08:46:55;4.00;99.90
27376;DHT22;14844;51.302;6.354;2023-02-15T08:49:22;4.10;99.90
27376;DHT22;14844;51.302;6.354;2023-02-15T08:51:49;4.10;99.90
27376;DHT22;14844;51.302;6.354;2023-02-15T08:54:17;4.30;99.90
27376;DHT22;14844;51.302;6.354;2023-02-15T08:56:44;4.50;99.90
27376;DHT22;14844;51.302;6.354;2023-02-15T08:59:20;4.60;99.90
27376;DHT22;14844;51.302;6.354;2023-02-15T09:01:47;4.70;99.90
27376;DHT22;14844;51.302;6.354;2023-02-15T09:04:13;4.80;99.90
27376;DHT22;14844;51.302;6.354;2023-02-15T09:06:41;4.90;99.90
27376;DHT22;14844;51.302;6.354;2023-02-15T09:09:07;5.10;99.90
27376;DHT22;14844;51.302;6.354;2023-02-15T09:11:42;5.20;99.90
27376;DHT22;14844;51.302;6.354;2023-02-15T09:14:19;5.40;99.90
27376;DHT22;14844;51.302;6.354;2023-02-15T09:16:46;5.50;99.90
27376;DHT22;14844;51.302;6.354;2023-02-15T09:19:19;5.70;99.90
27376;DHT22;14844;51.302;6.354;2023-02-15T09:21:45;5.70;99.90
27376;DHT22;14844;51.302;6.354;2023-02-15T09:24:12;5.90;99.90
27376;DHT22;14844;51.302;6.354;2023-02-15T09:26:40;6.10;99.90
27376;DHT22;14844;51.302;6.354;2023-02-15T09:29:06;6.20;99.90
27376;DHT22;14844;51.302;6.354;2023-02-15T09:31:37;6.50;99.90
27376;DHT22;14844;51.302;6.354;2023-02-15T09:34:03;6.60;99.90
27376;DHT22;14844;51.302;6.354;2023-02-15T09:36:41;6.80;99.90
27376;DHT22;14844;51.302;6.354;2023-02-15T09:39:24;7.00;99.90
27376;DHT22;14844;51.302;6.354;2023-02-15T09:41:54;7.10;99.90
27376;DHT22;14844;51.302;6.354;2023-02-15T09:52:55;7.60;99.90
27376;DHT22;14844;51.302;6.354;2023-02-15T09:55:42;7.70;99.90
27376;DHT22;14844;51.302;6.354;2023-02-15T09:58:40;7.90;99.90
27376;DHT22;14844;51.302;6.354;2023-02-15T10:09:46;8.60;99.90
27376;DHT22;14844;51.302;6.354;2023-02-15T10:18:30;9.00;99.90
27376;DHT22;14844;51.302;6.354;2023-02-15T10:26:22;9.20;99.90
27376;DHT22;14844;51.302;6.354;2023-02-15T10:29:07;9.30;99.90
27376;DHT22;14844;51.302;6.354;2023-02-15T10:32:38;9.50;99.90
27376;DHT22;14844;51.302;6.354;2023-02-15T10:34:51;9.60;99.90
27376;DHT22;14844;51.302;6.354;2023-02-15T10:40:28;9.80;99.90
27376;DHT22;14844;51.302;6.354;2023-02-15T10:48:53;10.10;99.90
27376;DHT22;14844;51.302;6.354;2023-02-15T10:54:10;10.60;99.90
27376;DHT22;14844;51.302;6.354;2023-02-15T10:57:02;10.60;99.90
27376;DHT22;14844;51.302;6.354;2023-02-15T11:02:25;10.70;99.90
27376;DHT22;14844;51.302;6.354;2023-02-15T11:07:52;10.50;99.90
27376;DHT22;14844;51.302;6.354;2023-02-15T11:13:17;10.80;99.90
27376;DHT22;14844;51.302;6.354;2023-02-15T11:15:59;10.70;99.90
27376;DHT22;14844;51.302;6.354;2023-02-15T11:18:36;10.60;99.90
27376;DHT22;14844;51.302;6.354;2023-02-15T11:21:27;10.80;99.90
27376;DHT22;14844;51.302;6.354;2023-02-15T11:23:54;10.90;99.90
27376;DHT22;14844;51.302;6.354;2023-02-15T11:26:34;11.10;99.90
27376;DHT22;14844;51.302;6.354;2023-02-15T11:29:16;11.00;99.90
27376;DHT22;14844;51.302;6.354;2023-02-15T11:31:58;10.90;99.90
27376;DHT22;14844;51.302;6.354;2023-02-15T11:34:31;11.20;99.90
27376;DHT22;14844;51.302;6.354;2023-02-15T11:37:05;11.30;99.90
27376;DHT22;14844;51.302;6.354;2023-02-15T11:39:31;11.40;99.90
27376;DHT22;14844;51.302;6.354;2023-02-15T11:42:09;11.40;99.90
27376;DHT22;14844;51.302;6.354;2023-02-15T11:45:04;11.40;99.90
27376;DHT22;14844;51.302;6.354;2023-02-15T11:47:28;11.30;99.90
27376;DHT22;14844;51.302;6.354;2023-02-15T11:49:56;11.30;99.90
27376;DHT22;14844;51.302;6.354;2023-02-15T11:52:24;11.60;99.90
27376;DHT22;14844;51.302;6.354;2023-02-15T11:54:51;11.80;99.90
27376;DHT22;14844;51.302;6.354;2023-02-15T11:57:33;11.90;99.90
27376;DHT22;14844;51.302;6.354;2023-02-15T12:00:03;12.10;99.90
27376;DHT22;14844;51.302;6.354;2023-02-15T12:05:00;12.40;99.90
27376;DHT22;14844;51.302;6.354;2023-02-15T12:07:31;12.60;99.90
27376;DHT22;14844;51.302;6.354;2023-02-15T12:12:41;13.00;99.90
27376;DHT22;14844;51.302;6.354;2023-02-15T12:15:09;13.20;99.90
27376;DHT22;14844;51.302;6.354;2023-02-15T12:17:52;13.40;99.90
27376;DHT22;14844;51.302;6.354;2023-02-15T12:22:54;13.50;99.90
27376;DHT22;14844;51.302;6.354;2023-02-15T12:25:23;13.60;99.90
27376;DHT22;14844;51.302;6.354;2023-02-15T12:27:50;13.70;99.90
27376;DHT22;14844;51.302;6.354;2023-02-15T12:30:35;13.80;99.90
27376;DHT22;14844;51.302;6.354;2023-02-15T12:33:27;13.80;99.90
27376;DHT22;14844;51.302;6.354;2023-02-15T12:36:06;13.90;99.90
27376;DHT22;14844;51.302;6.354;2023-02-15T12:38:34;14.00;99.90
27376;DHT22;14844;51.302;6.354;2023-02-15T12:41:21;14.10;99.90
27376;DHT22;14844;51.302;6.354;2023-02-15T12:43:47;14.20;99.90
27376;DHT22;14844;51.302;6.354;2023-02-15T12:46:26;14.20;99.90
27376;DHT22;14844;51.302;6.354;2023-02-15T12:49:17;14.10;99.90
27376;DHT22;14844;51.302;6.354;2023-02-15T12:51:49;14.20;99.90
27376;DHT22;14844;51.302;6.354;2023-02-15T12:54:37;14.20;99.90
27376;DHT22;14844;51.302;6.354;2023-02-15T12:57:23;14.30;99.90
27376;DHT22;14844;51.302;6.354;2023-02-15T12:59:59;14.20;99.90
27376;DHT22;14844;51.302;6.354;2023-02-15T13:02:34;14.20;99.90
27376;DHT22;14844;51.302;6.354;2023-02-15T13:07:45;14.20;99.90
27376;DHT22;14844;51.302;6.354;2023-02-15T13:10:25;14.20;99.90
27376;DHT22;14844;51.302;6.354;2023-02-15T13:12:55;14.20;99.90
27376;DHT22;14844;51.302;6.354;2023-02-15T13:15:44;14.20;99.90
27376;DHT22;14844;51.302;6.354;2023-02-15T13:18:37;14.30;99.90
27376;DHT22;14844;51.302;6.354;2023-02-15T13:23:36;14.60;99.90
27376;DHT22;14844;51.302;6.354;2023-02-15T13:26:05;14.70;99.90
27376;DHT22;14844;51.302;6.354;2023-02-15T13:28:40;14.70;99.90
27376;DHT22;14844;51.302;6.354;2023-02-15T13:31:23;14.80;99.90
27376;DHT22;14844;51.302;6.354;2023-02-15T13:34:02;14.90;99.90
27376;DHT22;14844;51.302;6.354;2023-02-15T13:36:38;14.90;99.90
27376;DHT22;14844;51.302;6.354;2023-02-15T13:39:22;14.70;99.90
27376;DHT22;14844;51.302;6.354;2023-02-15T13:45:04;14.80;99.90
27376;DHT22;14844;51.302;6.354;2023-02-15T13:55:36;14.70;99.90
27376;DHT22;14844;51.302;6.354;2023-02-15T14:01:24;14.70;99.90
27376;DHT22;14844;51.302;6.354;2023-02-15T14:09:52;14.60;99.90
27376;DHT22;14844;51.302;6.354;2023-02-15T14:15:11;14.70;99.90
27376;DHT22;14844;51.302;6.354;2023-02-15T14:20:54;14.90;99.90
27376;DHT22;14844;51.302;6.354;2023-02-15T14:26:30;14.70;99.90
27376;DHT22;14844;51.302;6.354;2023-02-15T14:31:39;14.70;99.90
27376;DHT22;14844;51.302;6.354;2023-02-15T14:34:26;14.80;99.90
27376;DHT22;14844;51.302;6.354;2023-02-15T14:37:18;14.70;99.90
27376;DHT22;14844;51.302;6.354;2023-02-15T14:39:57;14.60;99.90
27376;DHT22;14844;51.302;6.354;2023-02-15T14:45:56;14.60;99.90
27376;DHT22;14844;51.302;6.354;2023-02-15T14:48:25;14.70;99.90
27376;DHT22;14844;51.302;6.354;2023-02-15T14:50:55;14.70;99.90
27376;DHT22;14844;51.302;6.354;2023-02-15T14:56:20;14.80;99.90
27376;DHT22;14844;51.302;6.354;2023-02-15T15:01:32;14.90;99.90
27376;DHT22;14844;51.302;6.354;2023-02-15T15:04:44;15.00;99.90
27376;DHT22;14844;51.302;6.354;2023-02-15T15:09:40;14.80;99.90
27376;DHT22;14844;51.302;6.354;2023-02-15T15:12:36;14.70;99.90
27376;DHT22;14844;51.302;6.354;2023-02-15T15:15:04;14.60;99.90
27376;DHT22;14844;51.302;6.354;2023-02-15T15:20:11;14.50;99.90
27376;DHT22;14844;51.302;6.354;2023-02-15T15:22:40;14.50;99.90
27376;DHT22;14844;51.302;6.354;2023-02-15T15:27:55;14.20;99.90
27376;DHT22;14844;51.302;6.354;2023-02-15T15:41:40;13.30;99.90
27376;DHT22;14844;51.302;6.354;2023-02-15T15:49:32;12.70;99.90
27376;DHT22;14844;51.302;6.354;2023-02-15T15:52:08;12.60;99.90
27376;DHT22;14844;51.302;6.354;2023-02-15T15:54:38;12.30;99.90
27376;DHT22;14844;51.302;6.354;2023-02-15T15:57:05;12.10;99.90
27376;DHT22;14844;51.302;6.354;2023-02-15T15:59:44;12.00;99.90
27376;DHT22;14844;51.302;6.354;2023-02-15T16:02:14;11.90;99.90
27376;DHT22;14844;51.302;6.354;2023-02-15T16:04:45;11.50;99.90
27376;DHT22;14844;51.302;6.354;2023-02-15T16:09:58;11.20;99.90
27376;DHT22;14844;51.302;6.354;2023-02-15T16:12:25;11.10;99.90
27376;DHT22;14844;51.302;6.354;2023-02-15T16:14:52;10.90;99.90
27376;DHT22;14844;51.302;6.354;2023-02-15T16:17:24;10.90;99.90
27376;DHT22;14844;51.302;6.354;2023-02-15T16:19:52;10.70;99.90
27376;DHT22;14844;51.302;6.354;2023-02-15T16:22:36;10.60;99.90
27376;DHT22;14844;51.302;6.354;2023-02-15T16:25:27;10.50;99.90
27376;DHT22;14844;51.302;6.354;2023-02-15T16:27:56;10.50;99.90
27376;DHT22;14844;51.302;6.354;2023-02-15T16:30:29;10.30;99.90
27376;DHT22;14844;51.302;6.354;2023-02-15T16:33:04;10.30;99.90
27376;DHT22;14844;51.302;6.354;2023-02-15T16:35:38;10.20;99.90
27376;DHT22;14844;51.302;6.354;2023-02-15T16:38:05;10.00;99.90
27376;DHT22;14844;51.302;6.354;2023-02-15T16:40:47;9.90;99.90
27376;DHT22;14844;51.302;6.354;2023-02-15T16:43:24;9.90;99.90
27376;DHT22;14844;51.302;6.354;2023-02-15T16:45:53;9.70;99.90
27376;DHT22;14844;51.302;6.354;2023-02-15T16:48:23;9.60;99.90
27376;DHT22;14844;51.302;6.354;2023-02-15T16:50:59;9.60;99.90
27376;DHT22;14844;51.302;6.354;2023-02-15T16:53:27;9.50;99.90
27376;DHT22;14844;51.302;6.354;2023-02-15T16:55:58;9.40;99.90
27376;DHT22;14844;51.302;6.354;2023-02-15T16:58:31;9.30;99.90
27376;DHT22;14844;51.302;6.354;2023-02-15T17:00:59;9.20;99.90
27376;DHT22;14844;51.302;6.354;2023-02-15T17:03:26;9.20;99.90
27376;DHT22;14844;51.302;6.354;2023-02-15T17:05:57;9.10;99.90
27376;DHT22;14844;51.302;6.354;2023-02-15T17:08:34;9.00;99.90
27376;DHT22;14844;51.302;6.354;2023-02-15T17:11:10;9.00;99.90
27376;DHT22;14844;51.302;6.354;2023-02-15T17:13:37;9.00;99.90
27376;DHT22;14844;51.302;6.354;2023-02-15T17:18:39;8.80;99.90
27376;DHT22;14844;51.302;6.354;2023-02-15T17:21:17;8.70;99.90
27376;DHT22;14844;51.302;6.354;2023-02-15T17:23:46;8.70;99.90
27376;DHT22;14844;51.302;6.354;2023-02-15T17:26:19;8.60;99.90
27376;DHT22;14844;51.302;6.354;2023-02-15T17:28:47;8.60;99.90
27376;DHT22;14844;51.302;6.354;2023-02-15T17:31:16;8.50;99.90
27376;DHT22;14844;51.302;6.354;2023-02-15T17:33:42;8.50;99.90
27376;DHT22;14844;51.302;6.354;2023-02-15T17:36:12;8.50;99.90
27376;DHT22;14844;51.302;6.354;2023-02-15T17:38:42;8.50;99.90
27376;DHT22;14844;51.302;6.354;2023-02-15T17:41:24;8.40;99.90
27376;DHT22;14844;51.302;6.354;2023-02-15T17:43:50;8.30;99.90
27376;DHT22;14844;51.302;6.354;2023-02-15T17:46:16;8.30;99.90
27376;DHT22;14844;51.302;6.354;2023-02-15T17:48:46;8.20;99.90
27376;DHT22;14844;51.302;6.354;2023-02-15T17:51:13;8.10;99.90
27376;DHT22;14844;51.302;6.354;2023-02-15T17:53:40;8.10;99.90
27376;DHT22;14844;51.302;6.354;2023-02-15T17:56:53;8.10;99.90
27376;DHT22;14844;51.302;6.354;2023-02-15T18:00:02;8.10;99.90
27376;DHT22;14844;51.302;6.354;2023-02-15T18:02:48;8.10;99.90
27376;DHT22;14844;51.302;6.354;2023-02-15T18:05:32;8.00;99.90
27376;DHT22;14844;51.302;6.354;2023-02-15T18:08:18;7.90;99.90
27376;DHT22;14844;51.302;6.354;2023-02-15T18:11:05;7.90;99.90
27376;DHT22;14844;51.302;6.354;2023-02-15T18:13:51;7.80;99.90
27376;DHT22;14844;51.302;6.354;2023-02-15T18:16:24;7.80;99.90
27376;DHT22;14844;51.302;6.354;2023-02-15T18:19:08;7.70;99.90
27376;DHT22;14844;51.302;6.354;2023-02-15T18:21:37;7.70;99.90
27376;DHT22;14844;51.302;6.354;2023-02-15T18:24:03;7.70;99.90
27376;DHT22;14844;51.302;6.354;2023-02-15T18:26:29;7.60;99.90
27376;DHT22;14844;51.302;6.354;2023-02-15T18:28:55;7.60;99.90
27376;DHT22;14844;51.302;6.354;2023-02-15T18:31:21;7.60;99.90
27376;DHT22;14844;51.302;6.354;2023-02-15T18:33:50;7.50;99.90
27376;DHT22;14844;51.302;6.354;2023-02-15T18:36:23;7.50;99.90
27376;DHT22;14844;51.302;6.354;2023-02-15T18:38:55;7.40;99.90
27376;DHT22;14844;51.302;6.354;2023-02-15T18:41:24;7.40;99.90
27376;DHT22;14844;51.302;6.354;2023-02-15T18:43:50;7.30;99.90
27376;DHT22;14844;51.302;6.354;2023-02-15T18:46:17;7.20;99.90
27376;DHT22;14844;51.302;6.354;2023-02-15T18:48:43;7.00;99.90
27376;DHT22;14844;51.302;6.354;2023-02-15T18:51:17;6.90;99.90
27376;DHT22;14844;51.302;6.354;2023-02-15T18:53:44;6.90;99.90
27376;DHT22;14844;51.302;6.354;2023-02-15T18:56:14;6.80;99.90